createdAt,value
2019-01-25T00:01:13.381Z,77.87
2019-01-25T00:07:44.283Z,68.30
2019-01-25T00:13:56.837Z,64.97
2019-01-25T00:20:27.471Z,63.02
2019-01-25T00:26:46.213Z,74.27
2019-01-25T00:33:04.266Z,63.33
2019-01-25T00:39:23.061Z,70.97
2019-01-25T00:41:53.302Z,70.62
2019-01-25T00:51:01.430Z,72.47
2019-01-25T00:57:32.131Z,70.83
2019-01-25T01:04:03.060Z,66.30
2019-01-25T01:10:33.938Z,69.60
2019-01-25T01:17:04.557Z,58.78
2019-01-25T01:23:35.430Z,71.53
2019-01-25T01:30:19.335Z,53.60
2019-01-25T01:37:08.306Z,70.22
2019-01-25T01:43:38.913Z,73.83
2019-01-25T01:46:25.687Z,68.15
2019-01-25T01:49:33.465Z,70.55
2019-01-25T01:56:04.225Z,60.33
2019-01-25T02:02:35.221Z,73.35
2019-01-25T02:09:24.069Z,68.95
2019-01-25T02:15:41.921Z,56.18
2019-01-25T02:22:01.274Z,63.58
2019-01-25T02:28:19.436Z,68.22
2019-01-25T02:34:37.714Z,64.72
2019-01-25T02:40:39.211Z,66.75
2019-01-25T02:50:22.485Z,70.97
2019-01-25T03:00:41.750Z,43.75
2019-01-25T03:07:12.570Z,55.98
2019-01-25T03:13:43.536Z,56.30
2019-01-25T03:20:16.816Z,67.70
2019-01-25T03:26:47.526Z,59.90
2019-01-25T03:33:00.647Z,52.08
2019-01-25T03:39:49.819Z,50.28
2019-01-25T03:46:20.979Z,50.20
2019-01-25T03:52:16.097Z,57.70
2019-01-25T03:59:05.725Z,53.10
2019-01-25T04:05:37.573Z,56.53
2019-01-25T04:08:10.130Z,50.08
2019-01-25T04:14:29.586Z,44.33
2019-01-25T04:18:03.621Z,55.20
2019-01-25T04:24:34.895Z,42.15
2019-01-25T04:31:05.489Z,50.65
2019-01-25T04:37:36.179Z,46.98
2019-01-25T04:44:08.104Z,51.28
2019-01-25T04:50:38.579Z,60.80
2019-01-25T04:54:00.549Z,40.03
2019-01-25T05:00:21.677Z,58.48
2019-01-25T05:06:40.342Z,54.30
2019-01-25T05:12:58.765Z,56.85
2019-01-25T05:19:17.090Z,63.23
2019-01-25T05:25:35.437Z,65.22
2019-01-25T05:31:53.795Z,72.87
2019-01-25T05:42:12.973Z,72.90
2019-01-25T05:49:02.309Z,82.42
2019-01-25T05:54:56.950Z,60.98
2019-01-25T06:01:27.623Z,62.60
2019-01-25T06:07:58.179Z,55.17
2019-01-25T06:14:28.717Z,56.33
2019-01-25T06:20:53.829Z,53.25
2019-01-25T06:27:43.018Z,67.95
2019-01-25T06:34:13.618Z,58.38
2019-01-25T06:40:44.484Z,63.78
2019-01-25T06:46:56.585Z,67.75
2019-01-25T06:50:25.158Z,64.60
2019-01-25T06:53:01.476Z,65.12
2019-01-25T06:55:36.477Z,69.58
2019-01-25T06:58:17.221Z,63.98
2019-01-25T07:00:49.763Z,51.80
2019-01-25T07:03:21.602Z,69.12
2019-01-25T07:05:51.345Z,70.47
2019-01-25T07:08:23.077Z,61.55
2019-01-25T07:10:53.039Z,55.08
2019-01-25T07:13:22.877Z,48.10
2019-01-25T07:15:52.846Z,69.03
2019-01-25T07:18:22.685Z,60.55
2019-01-25T07:20:52.709Z,71.15
2019-01-25T07:23:22.883Z,58.48
2019-01-25T07:26:10.892Z,55.40
2019-01-25T07:28:43.449Z,62.88
2019-01-25T07:31:16.730Z,67.85
2019-01-25T07:33:55.660Z,64.90
2019-01-25T07:36:25.694Z,71.47
2019-01-25T07:38:55.745Z,91.25
2019-01-25T07:41:25.839Z,69.35
2019-01-25T07:44:11.053Z,69.00
2019-01-25T07:46:41.091Z,74.92
2019-01-25T07:49:13.769Z,72.00
2019-01-25T07:51:43.597Z,72.10
2019-01-25T07:54:13.695Z,75.52
2019-01-25T07:56:43.841Z,54.42
2019-01-25T07:59:13.913Z,80.25
2019-01-25T08:01:44.278Z,73.62
2019-01-25T08:04:14.360Z,73.05
2019-01-25T08:06:51.241Z,67.15
2019-01-25T08:09:21.374Z,66.25
2019-01-25T08:11:51.480Z,77.42
2019-01-25T08:14:21.312Z,71.95
2019-01-25T08:16:51.026Z,68.47
2019-01-25T08:19:31.346Z,71.85
2019-01-25T08:22:07.034Z,72.20
2019-01-25T08:24:37.035Z,81.10
2019-01-25T08:27:07.145Z,234.95
2019-01-25T08:29:37.259Z,98.97
2019-01-25T08:32:10.078Z,72.70
2019-01-25T08:34:40.048Z,70.62
2019-01-25T08:37:13.054Z,69.67
2019-01-25T08:39:52.858Z,74.67
2019-01-25T08:42:23.794Z,67.87
2019-01-25T08:44:54.590Z,67.80
2019-01-25T08:47:28.882Z,57.98
2019-01-25T08:49:59.596Z,79.65
2019-01-25T08:52:29.401Z,61.73
2019-01-25T08:54:59.108Z,67.12
2019-01-25T08:57:29.117Z,57.83
2019-01-25T08:59:59.167Z,61.60
2019-01-25T09:02:29.294Z,76.33
2019-01-25T09:04:59.399Z,59.42
2019-01-25T09:07:30.142Z,58.00
2019-01-25T09:10:01.818Z,64.37
2019-01-25T09:12:37.598Z,73.00
2019-01-25T09:15:12.221Z,63.92
2019-01-25T09:17:45.692Z,54.20
2019-01-25T09:20:21.283Z,63.75
2019-01-25T09:22:58.065Z,56.02
2019-01-25T09:25:28.004Z,61.45
2019-01-25T09:27:58.150Z,63.25
2019-01-25T09:30:29.906Z,73.87
2019-01-25T09:33:00.541Z,66.15
2019-01-25T09:35:30.325Z,56.33
2019-01-25T09:38:06.009Z,53.68
2019-01-25T09:40:36.637Z,52.23
2019-01-25T09:43:06.346Z,63.68
2019-01-25T09:45:47.013Z,56.68
2019-01-25T09:48:24.698Z,46.40
2019-01-25T09:50:54.675Z,49.50
2019-01-25T09:53:26.481Z,61.65
2019-01-25T09:55:56.463Z,59.27
2019-01-25T09:58:29.814Z,60.50
2019-01-25T10:01:06.237Z,40.67
2019-01-25T10:03:50.129Z,54.58
2019-01-25T10:06:26.874Z,59.75
2019-01-25T10:09:05.149Z,52.03
2019-01-25T10:11:38.144Z,41.53
2019-01-25T10:14:11.962Z,53.02
2019-01-25T10:16:48.167Z,52.30
2019-01-25T10:19:18.963Z,56.53
2019-01-25T10:21:48.700Z,43.45
2019-01-25T10:24:29.810Z,54.30
2019-01-25T10:26:59.938Z,53.05
2019-01-25T10:29:29.807Z,53.58
2019-01-25T10:32:02.966Z,53.95
2019-01-25T10:34:33.071Z,51.40
2019-01-25T10:37:04.239Z,47.20
2019-01-25T10:39:35.315Z,61.75
2019-01-25T10:42:07.380Z,39.50
2019-01-25T10:44:38.438Z,45.83
2019-01-25T10:47:08.535Z,39.58
2019-01-25T10:49:38.643Z,49.15
2019-01-25T10:52:10.740Z,35.70
2019-01-25T10:54:40.574Z,47.35
2019-01-25T10:57:13.790Z,39.75
2019-01-25T10:59:43.902Z,38.88
2019-01-25T11:02:14.003Z,39.30
2019-01-25T11:04:45.834Z,43.17
2019-01-25T11:07:15.538Z,35.33
2019-01-25T11:09:45.490Z,36.48
2019-01-25T11:12:16.504Z,49.35
2019-01-25T11:14:47.527Z,39.13
2019-01-25T11:17:18.523Z,36.33
2019-01-25T11:19:48.653Z,43.58
2019-01-25T11:22:18.875Z,39.10
2019-01-25T11:24:54.614Z,45.00
2019-01-25T11:27:25.487Z,35.92
2019-01-25T11:29:55.314Z,52.20
2019-01-25T11:32:25.014Z,38.35
2019-01-25T11:34:55.770Z,39.67
2019-01-25T11:37:26.695Z,41.15
2019-01-25T11:39:58.767Z,41.35
2019-01-25T11:42:28.979Z,44.20
2019-01-25T11:44:59.084Z,38.17
2019-01-25T11:47:31.158Z,28.17
2019-01-25T11:50:01.058Z,29.65
2019-01-25T11:52:31.758Z,38.42
2019-01-25T11:55:01.730Z,32.78
2019-01-25T11:57:31.562Z,42.40
2019-01-25T12:00:01.544Z,30.55
2019-01-25T12:02:31.457Z,31.12
2019-01-25T12:05:02.324Z,32.28
2019-01-25T12:07:32.158Z,33.35
2019-01-25T12:10:01.890Z,31.97
2019-01-25T12:12:34.713Z,33.58
2019-01-25T12:15:06.962Z,31.52
2019-01-25T12:17:36.678Z,27.40
2019-01-25T12:20:11.361Z,31.30
2019-01-25T12:22:50.835Z,24.55
2019-01-25T12:25:21.595Z,26.07
2019-01-25T12:27:51.636Z,27.40
2019-01-25T12:30:27.494Z,20.92
2019-01-25T12:32:59.151Z,29.98
2019-01-25T12:35:33.459Z,24.37
2019-01-25T12:38:04.093Z,23.55
2019-01-25T12:40:44.318Z,18.60
2019-01-25T12:43:14.417Z,26.60
2019-01-25T12:45:44.542Z,24.07
2019-01-25T12:48:15.587Z,27.45
2019-01-25T12:51:02.538Z,34.80
2019-01-25T12:53:33.838Z,24.37
2019-01-25T12:56:03.804Z,21.80
2019-01-25T12:58:34.945Z,24.12
2019-01-25T13:01:06.150Z,29.00
2019-01-25T13:03:44.818Z,25.68
2019-01-25T13:06:15.755Z,29.00
2019-01-25T13:08:47.511Z,34.23
2019-01-25T13:11:17.222Z,29.25
2019-01-25T13:13:47.282Z,34.08
2019-01-25T13:16:18.059Z,24.30
2019-01-25T13:18:48.733Z,32.38
2019-01-25T13:21:24.796Z,35.43
2019-01-25T13:23:57.614Z,31.77
2019-01-25T13:26:27.720Z,30.27
2019-01-25T13:28:57.824Z,28.30
2019-01-25T13:31:28.643Z,28.92
2019-01-25T13:34:00.378Z,26.65
2019-01-25T13:36:30.150Z,25.08
2019-01-25T13:38:59.911Z,25.40
2019-01-25T13:41:29.610Z,36.28
2019-01-25T13:43:59.564Z,31.12
2019-01-25T13:46:29.398Z,25.57
2019-01-25T13:48:59.663Z,26.30
2019-01-25T13:51:32.082Z,42.45
2019-01-25T13:54:02.942Z,30.37
2019-01-25T13:56:32.894Z,28.98
2019-01-25T13:59:02.859Z,25.80
2019-01-25T14:01:34.694Z,36.93
2019-01-25T14:04:05.491Z,27.20
2019-01-25T14:06:35.464Z,31.77
2019-01-25T14:09:09.255Z,32.63
2019-01-25T14:11:45.042Z,29.60
2019-01-25T14:14:16.650Z,35.58
2019-01-25T14:16:47.830Z,30.23
2019-01-25T14:19:17.928Z,24.32
2019-01-25T14:21:48.701Z,29.72
2019-01-25T14:24:18.666Z,30.45
2019-01-25T14:26:53.938Z,31.12
2019-01-25T14:29:29.167Z,32.08
2019-01-25T14:31:56.966Z,27.98
2019-01-25T14:34:27.009Z,31.70
2019-01-25T14:36:57.332Z,25.70
2019-01-25T14:39:35.302Z,25.65
2019-01-25T14:42:06.184Z,23.22
2019-01-25T14:44:38.258Z,29.30
2019-01-25T14:47:08.386Z,27.27
2019-01-25T14:49:38.490Z,22.48
2019-01-25T14:52:09.455Z,24.77
2019-01-25T14:54:39.418Z,28.05
2019-01-25T14:57:11.500Z,18.12
2019-01-25T14:59:41.359Z,30.90
2019-01-25T15:02:22.027Z,28.52
2019-01-25T15:04:52.014Z,26.68
2019-01-25T15:07:22.111Z,28.45
2019-01-25T15:09:51.808Z,28.35
2019-01-25T15:12:22.668Z,23.80
2019-01-25T15:14:52.498Z,24.23
2019-01-25T15:17:26.484Z,25.77
2019-01-25T15:20:02.826Z,34.75
2019-01-25T15:22:40.841Z,32.45
2019-01-25T15:25:15.430Z,24.63
2019-01-25T15:27:47.445Z,30.43
2019-01-25T15:30:27.030Z,22.50
2019-01-25T15:32:58.145Z,33.92
2019-01-25T15:35:29.432Z,33.63
2019-01-25T15:38:00.426Z,31.20
2019-01-25T15:40:31.254Z,49.65
2019-01-25T15:43:01.062Z,33.25
2019-01-25T15:45:31.334Z,29.80
2019-01-25T15:48:01.433Z,28.42
2019-01-25T15:50:31.736Z,25.45
2019-01-25T15:53:02.382Z,37.15
2019-01-25T15:55:32.695Z,28.35
2019-01-25T15:58:03.490Z,28.23
2019-01-25T16:00:33.450Z,30.25
2019-01-25T16:03:03.767Z,28.77
2019-01-25T16:05:34.519Z,27.48
2019-01-25T16:08:04.768Z,34.43
2019-01-25T16:10:34.608Z,45.85
2019-01-25T16:13:19.434Z,31.57
2019-01-25T16:15:49.396Z,35.92
2019-01-25T16:18:20.206Z,32.85
2019-01-25T16:20:50.166Z,28.23
2019-01-25T16:27:36.036Z,30.95
2019-01-25T16:33:52.134Z,39.55
2019-01-25T16:40:12.867Z,28.92
2019-01-25T17:01:07.771Z,32.30
2019-01-25T17:03:52.510Z,23.07
2019-01-25T17:16:05.628Z,26.52
2019-01-25T17:19:49.674Z,34.75
2019-01-25T17:25:51.795Z,34.60
2019-01-25T17:34:54.118Z,33.65
2019-01-25T17:55:25.734Z,29.55
2019-01-25T17:58:16.142Z,29.55
2019-01-25T18:01:46.071Z,35.85
2019-01-25T18:08:07.862Z,37.65
2019-01-25T18:20:49.694Z,37.70
2019-01-25T18:24:27.178Z,47.50
2019-01-25T18:34:11.359Z,40.83
2019-01-25T18:37:25.346Z,28.40
2019-01-25T18:39:57.336Z,36.85
2019-01-25T18:43:14.674Z,38.67
2019-01-25T18:53:54.119Z,35.58
2019-01-25T19:00:30.595Z,63.15
2019-01-25T19:06:42.647Z,45.23
2019-01-25T19:10:14.322Z,42.50
2019-01-25T19:13:05.630Z,41.63
2019-01-25T19:25:36.793Z,32.05
2019-01-25T19:28:43.632Z,30.52
2019-01-25T19:31:23.898Z,30.05
2019-01-25T19:44:21.418Z,30.90
2019-01-25T19:47:01.587Z,31.35
2019-01-25T19:53:56.735Z,29.35
2019-01-25T19:56:49.891Z,30.68
2019-01-25T20:09:16.477Z,26.27
2019-01-25T20:12:28.410Z,31.05
2019-01-25T20:16:02.003Z,27.05
2019-01-25T20:19:09.855Z,40.75
2019-01-25T20:22:01.850Z,33.73
2019-01-25T20:27:52.302Z,30.05
2019-01-25T20:31:25.551Z,29.12
2019-01-25T20:33:46.010Z,31.23
2019-01-25T20:36:21.186Z,26.45
2019-01-25T20:38:52.114Z,35.63
2019-01-25T20:41:22.291Z,32.03
2019-01-25T20:43:55.086Z,27.75
2019-01-25T20:53:37.512Z,37.20
2019-01-25T21:01:05.671Z,30.02
2019-01-25T21:04:06.602Z,33.58
2019-01-25T21:06:36.724Z,29.07
2019-01-25T21:09:44.811Z,29.92
2019-01-25T21:12:17.327Z,27.48
2019-01-25T21:14:51.310Z,29.25
2019-01-25T21:17:43.913Z,28.73
2019-01-25T21:24:31.039Z,22.80
2019-01-25T21:26:56.866Z,30.50
2019-01-25T21:29:27.562Z,22.87
2019-01-25T21:32:04.011Z,30.85
2019-01-25T21:34:40.786Z,31.57
2019-01-25T21:37:11.803Z,25.88
2019-01-25T21:39:57.810Z,31.90
2019-01-25T21:42:29.746Z,26.68
2019-01-25T21:45:08.654Z,34.78
2019-01-25T21:47:44.227Z,24.92
2019-01-25T21:50:29.652Z,28.95
2019-01-25T21:53:01.459Z,24.92
2019-01-25T21:55:50.686Z,33.20
2019-01-25T21:58:24.674Z,28.80
2019-01-25T22:01:00.758Z,28.07
2019-01-25T22:03:32.087Z,20.60
2019-01-25T22:06:11.218Z,25.48
2019-01-25T22:08:42.390Z,28.98
2019-01-25T22:11:17.471Z,24.35
2019-01-25T22:14:02.618Z,25.02
2019-01-25T22:16:33.291Z,28.35
2019-01-25T22:19:05.619Z,26.77
2019-01-25T22:22:18.275Z,27.67
2019-01-25T22:24:54.048Z,23.35
2019-01-25T22:27:28.288Z,20.20
2019-01-25T22:30:14.904Z,22.87
2019-01-25T22:32:44.218Z,24.47
2019-01-25T22:35:34.901Z,23.05
2019-01-25T22:38:43.020Z,26.68
2019-01-25T22:41:08.101Z,30.17
2019-01-25T22:55:24.697Z,14.78
2019-01-25T22:58:06.062Z,18.80
2019-01-25T23:01:26.800Z,21.37
2019-01-25T23:04:38.004Z,20.02
2019-01-25T23:07:21.785Z,13.35
2019-01-25T23:10:01.656Z,15.40
2019-01-25T23:13:11.704Z,14.40
2019-01-25T23:15:45.684Z,15.68
2019-01-25T23:18:16.701Z,17.48
2019-01-25T23:20:48.824Z,12.95
2019-01-25T23:23:20.903Z,15.50
2019-01-25T23:25:51.056Z,14.33
2019-01-25T23:28:38.555Z,16.93
2019-01-25T23:31:08.820Z,14.30
2019-01-25T23:33:40.671Z,11.38
2019-01-25T23:36:14.976Z,15.63
2019-01-25T23:38:46.116Z,14.13
2019-01-25T23:41:23.750Z,12.05
2019-01-25T23:44:00.435Z,19.05
2019-01-25T23:46:30.667Z,15.63
2019-01-25T23:49:02.558Z,15.32
2019-01-25T23:51:33.391Z,10.48
2019-01-25T23:54:03.537Z,16.20
2019-01-25T23:56:35.683Z,11.10
2019-01-25T23:59:08.514Z,14.85
